Ranchita, CA (92066)

5:57 AM PDT on April 25, 2015 (GMT -0700)
RAWS | | Change Station
CLOSE
Current Station
Personal Weather Station
Location: Ranchita, CA
Elevation: 4415 ft
Nearby Weather Stations
Active Advisory: Wind Advisory Active Notice: Record Report

Elev 4415 ft 33.22 °N, 116.50 °W | Updated 50 minutes ago

Partly Cloudy
Partly Cloudy
42 °F
Feels Like 33 °F
N
22
Wind Variable Wind from WNW
Gusts 36.0 mph

Today
High -- | Low -- °F
--% Chance of Precip.
Yesterday
High -- | Low -- °F
Precip. -- in
6:04 AM 7:24 PM
Waxing Crescent, 45% visible
Pressure 29.91 in
Visibility -9999.0 miles
Clouds
Windchill 33 °F
Dew Point 42 °F
Humidity 100%
Rainfall in
Snow Depth Not available.
UV Not available.
Pollen 7.50 out of 12
Air Quality Not available.
Flu Activity Sporadic
METAR KCZZ 251252Z AUTO 23012KT 09/07 A2995 RMK AO1 SLP126 T00890072

More Conditions Fewer Conditions

Pressure 29.91 in
Visibility -9999.0 miles
Clouds
Windchill 33 °F
Dew Point 42 °F
Humidity 100%
Rainfall in
Snow Depth Not available.
UV Not available.
Pollen 7.50 out of 12
Air Quality Not available.
Flu Activity Sporadic
METAR KCZZ 251252Z AUTO 23012KT 09/07 A2995 RMK AO1 SLP126 T00890072

More Conditions Fewer Conditions

10-Day Weather Forecast

Almanac

Astronomy

Apr. 25, 2015 Rise Set
Actual Time
Civil Twilight
Nautical Twilight
Astronomical Twilight
Moon
Length of Visible Light
Length of Day
Tomorrow will be .
, % of the Moon is Illuminated

Today's Extremes

State Highs State Lows

Community

WunderPhotos

Upload Photos

1,816,649 photos uploaded!

WunderBlogs® & News

Nearby

Air Quality

  Air Quality AQ Index Pollutant
Not available.

Snow Depth

Station Depth Elevation

Earthquake Activity

City Distance Mag. Time & Date
Minimum magnitude displayed is 2.5.

Coastal Water Temperatures

Place Temperature

Stations

Nearby Weather Stations

Station Location Temp. Windchill Dew Point Humidity Wind Precip. Elev Updated Type
                   
Wind Advisory
Statement as of 3:17 AM PDT on April 25, 2015

... Wind Advisory remains in effect until 10 PM PDT this evening...

* winds... areas of west winds 20 to 30 mph with gusts to 45
mph... increasing to 25 to 35 mph with gusts to 55 mph this
afternoon and evening with isolated gusts to 65 mph.

* Timing... strongest winds this afternoon and evening...
diminishing late tonight.

* Location... east-west oriented mountain passes and along the
desert slopes and adjacent desert areas. Travel corridors
impacted include the I-8... I-10... and I-15.

* Visibility... reduced at times to one mile or less due to blowing
dust and sand.

* Impacts... strong winds will make travel hazardous for high
profile vehicles and could cause travel disruptions.

Precautionary/preparedness actions...

A Wind Advisory means that winds of 35 mph are expected. Winds
this strong can make driving difficult... especially for high
profile vehicles. Use extra caution.